Time;durP1;ratioP1;P1;durP2;ratioP2;P2;SDS_P1;SDS_P2;PMS_P1;PMS_P2;Temp;Humidity;BMP_temperature;BMP_pressure;BME280_temperature;BME280_humidity;BME280_pressure;Samples;Min_cycle;Max_cycle;Signal;HPM_P1;HPM_P2
2021/12/06 00:01:08;;;;;;;66.32;23.63;;;;;;;2.49;100.00;101377.50;5036885;28;20025;-78
2021/12/06 00:03:47;;;;;;;66.30;23.35;;;;;;;2.51;100.00;101383.72;5033941;28;20164;-78
2021/12/06 00:06:17;;;;;;;69.75;23.67;;;;;;;2.53;100.00;101385.56;5036664;28;20047;-78
2021/12/06 00:08:42;;;;;;;77.10;24.60;;;;;;;2.55;100.00;101384.75;5031079;28;20026;-78
2021/12/06 00:11:09;;;;;;;65.60;24.40;;;;;;;2.58;100.00;101380.66;5041291;28;20033;-78
2021/12/06 00:13:43;;;;;;;78.88;26.00;;;;;;;2.59;100.00;101387.66;5033397;28;20026;-78
2021/12/06 00:16:13;;;;;;;;;;;;;;;2.59;100.00;101387.66;5036603;28;20367;-78
2021/12/06 00:18:39;;;;;;;71.45;23.95;;;;;;;2.62;100.00;101384.28;5035363;28;19920;-77
2021/12/06 00:21:05;;;;;;;78.85;26.55;;;;;;;2.63;100.00;101389.63;5037629;28;20111;-78
2021/12/06 00:23:31;;;;;;;83.00;26.80;;;;;;;2.66;100.00;101392.38;5032081;28;20060;-78
2021/12/06 00:25:57;;;;;;;83.07;27.95;;;;;;;2.68;100.00;101397.66;5034877;28;20485;-78
2021/12/06 00:28:23;;;;;;;76.18;26.60;;;;;;;2.70;100.00;101396.94;5035471;28;20056;-78
2021/12/06 00:30:51;;;;;;;90.40;28.13;;;;;;;2.76;100.00;101400.69;5038419;28;20132;-79
2021/12/06 00:33:16;;;;;;;86.90;28.02;;;;;;;2.78;100.00;101401.66;5036623;28;20030;-79
2021/12/06 00:35:42;;;;;;;91.68;29.08;;;;;;;2.80;100.00;101397.47;5033708;28;20069;-79
2021/12/06 00:38:08;;;;;;;83.38;27.70;;;;;;;2.81;100.00;101404.47;5036294;28;20037;-79
2021/12/06 00:40:37;;;;;;;80.78;28.20;;;;;;;2.82;100.00;101406.22;5032919;28;20457;-79
2021/12/06 00:43:04;;;;;;;74.93;27.15;;;;;;;2.83;100.00;101413.22;5034808;28;20025;-79
2021/12/06 00:45:29;;;;;;;82.28;27.33;;;;;;;2.85;100.00;101416.81;5034035;28;20036;-79
2021/12/06 00:47:55;;;;;;;84.18;27.33;;;;;;;2.85;100.00;101417.72;5035972;28;20059;-78
2021/12/06 00:50:25;;;;;;;83.47;27.70;;;;;;;2.86;100.00;101423.78;5034421;28;20389;-78
2021/12/06 00:52:51;;;;;;;79.53;27.38;;;;;;;2.87;100.00;101425.59;5035307;28;20499;-78
2021/12/06 00:55:19;;;;;;;89.38;28.75;;;;;;;2.86;100.00;101436.78;5033115;28;20068;-78
2021/12/06 00:57:45;;;;;;;81.50;28.25;;;;;;;2.87;100.00;101441.19;5035138;28;20469;-80
2021/12/06 01:00:45;;;;;;;87.93;28.13;;;;;;;2.87;100.00;101436.88;5034569;28;20497;-79
2021/12/06 01:03:16;;;;;;;81.25;26.40;;;;;;;2.89;100.00;101442.19;5035616;28;20077;-79
2021/12/06 01:05:42;;;;;;;78.50;27.02;;;;;;;2.90;100.00;101443.06;5033946;28;20108;-78
2021/12/06 01:08:08;;;;;;;81.07;29.10;;;;;;;2.90;100.00;101451.75;5035025;28;20397;-79
2021/12/06 01:10:34;;;;;;;84.78;28.45;;;;;;;2.90;100.00;101461.25;5033416;28;20109;-79
2021/12/06 01:13:02;;;;;;;86.85;29.13;;;;;;;2.90;100.00;101462.16;5032769;28;20512;-78
2021/12/06 01:15:28;;;;;;;90.15;29.13;;;;;;;2.91;100.00;101463.06;5035726;28;20045;-79
2021/12/06 01:17:57;;;;;;;83.03;27.88;;;;;;;2.91;100.00;101461.34;5031846;28;20026;-78
2021/12/06 01:20:27;;;;;;;75.05;27.70;;;;;;;2.91;100.00;101469.16;5031425;28;20034;-79
2021/12/06 01:22:58;;;;;;;78.72;28.30;;;;;;;2.94;100.00;101469.31;5034488;28;20049;-79
2021/12/06 01:30:52;;;;;;;89.30;29.42;;;;;;;2.96;100.00;101469.44;5035934;28;20041;-79
2021/12/06 01:34:03;;;;;;;86.65;30.73;;;;;;;2.97;100.00;101468.59;5038169;28;20021;-78
2021/12/06 01:39:17;;;;;;;79.60;29.20;;;;;;;2.99;100.00;101478.28;5038043;28;20060;-79
2021/12/06 01:41:59;;;;;;;85.88;27.88;;;;;;;2.98;100.00;101473.00;5036285;28;20476;-79
2021/12/06 01:44:39;;;;;;;81.97;28.48;;;;;;;2.98;100.00;101475.59;5036301;28;20170;-78
2021/12/06 01:47:09;;;;;;;87.55;30.67;;;;;;;2.98;100.00;101478.19;5036483;28;20021;-79
2021/12/06 01:49:42;;;;;;;85.93;30.23;;;;;;;2.98;100.00;101481.69;5036037;28;20148;-78
2021/12/06 01:52:16;;;;;;;88.40;29.55;;;;;;;2.97;100.00;101479.91;5037755;28;20485;-79
2021/12/06 01:54:42;;;;;;;86.25;29.67;;;;;;;2.99;100.00;101488.69;5036839;28;20031;-78
2021/12/06 01:57:08;;;;;;;82.68;29.30;;;;;;;2.99;100.00;101482.59;5034609;28;20033;-77
2021/12/06 01:59:34;;;;;;;98.03;32.38;;;;;;;3.00;100.00;101487.88;5036934;28;20445;-78
2021/12/06 02:02:00;;;;;;;96.57;31.55;;;;;;;3.01;100.00;101481.88;5037930;28;20045;-79
2021/12/06 02:04:29;;;;;;;79.70;29.05;;;;;;;2.99;100.00;101478.28;5034838;28;20065;-79
2021/12/06 02:06:57;;;;;;;90.03;31.25;;;;;;;2.98;100.00;101481.69;5035836;28;20029;-78
2021/12/06 02:09:26;;;;;;;92.97;30.30;;;;;;;3.00;100.00;101479.19;5035287;28;20033;-79
2021/12/06 02:11:52;;;;;;;86.35;29.02;;;;;;;2.98;100.00;101481.69;5037524;28;20061;-79
2021/12/06 02:14:29;;;;;;;84.97;29.88;;;;;;;2.98;100.00;101480.78;5038684;28;20030;-79
2021/12/06 02:17:14;;;;;;;91.82;31.48;;;;;;;2.98;100.00;101475.59;5041480;28;20056;-78
2021/12/06 02:19:42;;;;;;;;;;;;;;;2.97;100.00;101479.00;5033703;28;20828;-78
2021/12/06 02:22:14;;;;;;;83.45;28.27;;;;;;;2.96;100.00;101478.13;5041180;28;20003;-78
2021/12/06 02:24:40;;;;;;;83.43;28.92;;;;;;;2.95;100.00;101473.72;5035546;28;20551;-79
2021/12/06 02:27:09;;;;;;;80.65;28.63;;;;;;;2.94;100.00;101471.91;5037732;28;20136;-77
2021/12/06 02:29:35;;;;;;;82.43;28.58;;;;;;;2.93;100.00;101477.03;5040555;28;20480;-78
2021/12/06 02:32:09;;;;;;;82.63;29.63;;;;;;;2.91;100.00;101469.16;5036408;28;20112;-78
2021/12/06 02:34:34;;;;;;;88.80;29.77;;;;;;;2.90;100.00;101467.34;5035800;28;20021;-79
2021/12/06 02:37:00;;;;;;;87.43;29.05;;;;;;;2.88;100.00;101471.59;5032820;28;20042;-78
2021/12/06 02:39:28;;;;;;;86.10;29.98;;;;;;;2.84;100.00;101467.91;5038142;28;20537;-79
2021/12/06 02:41:56;;;;;;;81.10;30.42;;;;;;;2.82;100.00;101466.94;5034394;28;20029;-78
2021/12/06 02:44:22;;;;;;;85.22;28.83;;;;;;;2.81;100.00;101469.44;5034981;28;20056;-78
2021/12/06 02:46:48;;;;;;;85.15;30.75;;;;;;;2.77;100.00;101464.84;5034754;28;20054;-79
2021/12/06 02:49:15;;;;;;;79.88;29.25;;;;;;;2.73;100.00;101457.69;5036842;28;20052;-78
2021/12/06 02:51:41;;;;;;;75.07;28.00;;;;;;;2.65;100.00;101463.34;5030626;28;20088;-79
2021/12/06 02:54:10;;;;;;;73.88;26.73;;;;;;;2.57;100.00;101467.19;5035793;28;20464;-80
2021/12/06 02:56:55;;;;;;;74.50;27.50;;;;;;;2.51;100.00;101472.03;5035464;28;20037;-78
2021/12/06 02:59:25;;;;;;;76.28;28.85;;;;;;;2.43;100.00;101478.44;5034873;28;20113;-78
2021/12/06 03:01:59;;;;;;;76.10;27.48;;;;;;;2.34;100.00;101474.50;5029482;28;20029;-79
2021/12/06 03:04:26;;;;;;;78.65;27.95;;;;;;;2.22;100.00;101463.38;5034783;28;20029;-79
2021/12/06 03:06:55;;;;;;;76.88;26.77;;;;;;;2.16;100.00;101465.63;5035873;28;20151;-79
2021/12/06 03:09:27;;;;;;;81.97;28.08;;;;;;;2.11;100.00;101469.63;5034384;28;20029;-79
2021/12/06 03:11:54;;;;;;;77.85;28.75;;;;;;;2.10;100.00;101467.81;5038006;28;20070;-79
2021/12/06 03:14:26;;;;;;;75.60;28.55;;;;;;;2.01;100.00;101471.66;5034371;28;20044;-79
2021/12/06 03:16:55;;;;;;;76.85;27.33;;;;;;;1.95;100.00;101475.56;5038521;28;20037;-79
2021/12/06 03:19:21;;;;;;;74.40;27.50;;;;;;;1.92;100.00;101483.19;5035539;28;20037;-79
2021/12/06 03:21:47;;;;;;;79.32;27.77;;;;;;;1.89;100.00;101481.28;5034808;28;20025;-79
2021/12/06 03:24:14;;;;;;;85.68;28.42;;;;;;;1.91;100.00;101486.56;5036462;28;20411;-79
2021/12/06 03:26:40;;;;;;;90.80;28.92;;;;;;;1.88;100.00;101481.19;5031434;28;20489;-79
2021/12/06 03:29:07;;;;;;;91.82;30.30;;;;;;;1.85;100.00;101487.97;5038722;28;20371;-79
2021/12/06 03:31:33;;;;;;;93.22;29.30;;;;;;;1.85;100.00;101500.06;5036205;28;20033;-79
2021/12/06 03:34:00;;;;;;;89.63;29.50;;;;;;;1.80;100.00;101491.09;5035450;28;20034;-79
2021/12/06 03:36:30;;;;;;;82.68;27.80;;;;;;;1.75;100.00;101490.81;5035408;28;20525;-80
2021/12/06 03:38:56;;;;;;;94.25;31.25;;;;;;;1.72;100.00;101482.81;5033603;28;20068;-79
2021/12/06 03:41:24;;;;;;;96.75;31.77;;;;;;;1.69;100.00;101485.22;5035066;28;20044;-79
2021/12/06 03:43:52;;;;;;;100.32;32.17;;;;;;;1.65;100.00;101472.88;5033086;28;20030;-79
2021/12/06 03:46:21;;;;;;;104.65;32.30;;;;;;;1.65;100.00;101478.06;5035781;28;20421;-79
2021/12/06 03:48:47;;;;;;;100.10;31.45;;;;;;;1.61;100.00;101482.13;5031369;28;20643;-79
2021/12/06 03:51:13;;;;;;;95.35;30.05;;;;;;;1.59;100.00;101478.56;5036165;28;20032;-80
2021/12/06 03:53:39;;;;;;;100.82;29.17;;;;;;;1.53;100.00;101493.72;5035744;28;20477;-79
2021/12/06 03:56:06;;;;;;;84.93;27.92;;;;;;;1.50;100.00;101494.44;5035325;28;20037;-79
2021/12/06 03:58:33;;;;;;;98.45;31.48;;;;;;;1.50;100.00;101503.91;5034320;28;20021;-79
2021/12/06 04:01:02;;;;;;;102.00;30.95;;;;;;;1.45;100.00;101506.22;5035173;28;20427;-79
2021/12/06 04:03:32;;;;;;;99.32;30.40;;;;;;;1.44;100.00;101503.50;5030957;28;20033;-79
2021/12/06 04:05:59;;;;;;;91.43;28.60;;;;;;;1.38;100.00;101503.13;5035270;28;20457;-79
2021/12/06 04:08:25;;;;;;;84.40;29.27;;;;;;;1.36;100.00;101500.44;5036500;28;20056;-77
2021/12/06 04:10:51;;;;;;;98.05;28.70;;;;;;;1.37;100.00;101496.16;5034416;28;20561;-77
2021/12/06 04:13:16;;;;;;;97.20;29.98;;;;;;;1.32;100.00;101499.34;5036389;28;20037;-77
2021/12/06 04:15:44;;;;;;;81.78;28.33;;;;;;;1.31;100.00;101497.53;5033419;28;20029;-77
2021/12/06 04:18:11;;;;;;;88.80;29.13;;;;;;;1.29;100.00;101504.34;5034018;28;20040;-76
2021/12/06 04:20:37;;;;;;;87.15;27.92;;;;;;;1.23;100.00;101503.94;5032442;28;20116;-77
2021/12/06 04:23:08;;;;;;;77.78;26.00;;;;;;;1.21;100.00;101512.41;5035497;28;20072;-75
2021/12/06 04:25:35;;;;;;;82.43;28.63;;;;;;;1.22;100.00;101514.19;5033854;28;20041;-77
2021/12/06 04:28:05;;;;;;;91.53;29.15;;;;;;;1.20;100.00;101523.59;5035140;28;20080;-77
2021/12/06 04:30:32;;;;;;;94.28;29.30;;;;;;;1.18;100.00;101526.97;5033086;28;20500;-79
2021/12/06 04:32:57;;;;;;;103.63;31.02;;;;;;;1.23;100.00;101524.66;5033838;28;20060;-77
2021/12/06 04:35:24;;;;;;;96.30;32.15;;;;;;;1.24;100.00;101520.41;5033577;28;20056;-77
2021/12/06 04:37:50;;;;;;;98.93;30.08;;;;;;;1.23;100.00;101519.47;5032998;28;20029;-76
2021/12/06 04:40:16;;;;;;;85.60;28.88;;;;;;;1.24;100.00;101520.41;5034453;28;20072;-77
2021/12/06 04:42:42;;;;;;;102.10;30.38;;;;;;;1.20;100.00;101514.09;5034143;28;20044;-79
2021/12/06 04:45:09;;;;;;;99.53;30.92;;;;;;;1.14;100.00;101508.50;5034339;28;20029;-77
2021/12/06 04:47:35;;;;;;;91.68;30.20;;;;;;;1.10;100.00;101511.69;5034730;28;20162;-77
2021/12/06 04:50:03;;;;;;;96.20;28.63;;;;;;;1.05;100.00;101497.56;5032412;28;20112;-77
2021/12/06 04:52:28;;;;;;;86.32;29.65;;;;;;;0.98;100.00;101491.97;5036451;28;20033;-76
2021/12/06 04:54:57;;;;;;;73.15;26.50;;;;;;;0.91;100.00;101487.19;5036915;28;20040;-77
2021/12/06 04:57:31;;;;;;;78.40;27.90;;;;;;;0.85;100.00;101494.53;5036008;28;20052;-77
2021/12/06 05:00:00;;;;;;;;;;;;;;;0.83;100.00;101488.38;5032540;28;20083;-77
2021/12/06 05:02:33;;;;;;;77.00;26.75;;;;;;;0.81;100.00;101489.94;5033094;28;19929;-77
2021/12/06 05:05:05;;;;;;;89.70;28.67;;;;;;;0.81;100.00;101495.13;5032330;28;20036;-77
2021/12/06 05:07:39;;;;;;;89.05;29.10;;;;;;;0.84;100.00;101493.66;5037518;28;20032;-77
2021/12/06 05:10:07;;;;;;;109.53;31.13;;;;;;;0.85;100.00;101502.31;5031185;28;20493;-79
2021/12/06 05:12:35;;;;;;;82.05;28.10;;;;;;;0.80;100.00;101506.28;5031476;28;20041;-77
2021/12/06 05:15:02;;;;;;;87.82;26.55;;;;;;;0.73;100.00;101511.84;5034511;28;20096;-79
2021/12/06 05:17:30;;;;;;;86.30;27.63;;;;;;;0.67;100.00;101515.81;5033811;28;20609;-79
2021/12/06 05:19:56;;;;;;;88.18;28.92;;;;;;;0.67;100.00;101515.81;5031635;28;20029;-77
2021/12/06 05:22:24;;;;;;;93.38;30.20;;;;;;;0.66;100.00;101515.72;5034002;28;20105;-77
2021/12/06 05:24:50;;;;;;;79.53;27.05;;;;;;;0.56;100.00;101527.16;5033053;28;20031;-77
2021/12/06 05:27:18;;;;;;;85.72;28.02;;;;;;;0.48;100.00;101523.16;5030947;28;20045;-77
2021/12/06 05:29:46;;;;;;;72.70;26.10;;;;;;;0.39;100.00;101514.75;5032063;28;20021;-78
2021/12/06 05:32:12;;;;;;;83.15;28.00;;;;;;;0.45;100.00;101521.25;5030498;28;20075;-77
2021/12/06 05:34:40;;;;;;;109.53;32.90;;;;;;;0.57;100.00;101528.97;5044118;28;21566;-78
2021/12/06 05:37:09;;;;;;;99.50;29.95;;;;;;;0.62;100.00;101526.69;5034226;28;20151;-78
2021/12/06 05:39:34;;;;;;;115.80;32.13;;;;;;;0.72;100.00;101534.28;5033660;28;20025;-78
2021/12/06 05:42:04;;;;;;;119.55;33.00;;;;;;;0.76;100.00;101535.38;5034134;28;20155;-78
2021/12/06 05:44:30;;;;;;;114.82;33.85;;;;;;;0.86;100.00;101530.03;5033550;28;20124;-78
2021/12/06 05:46:59;;;;;;;117.15;33.70;;;;;;;0.92;100.00;101526.94;5035651;28;20100;-78
2021/12/06 05:49:25;;;;;;;128.70;35.72;;;;;;;1.03;100.00;101523.34;5035877;28;20029;-78
2021/12/06 05:51:51;;;;;;;136.93;37.22;;;;;;;1.14;100.00;101524.97;5035142;28;20473;-78
2021/12/06 05:54:17;;;;;;;140.57;38.20;;;;;;;1.25;100.00;101516.97;5034792;28;20025;-78
2021/12/06 05:56:44;;;;;;;149.82;40.10;;;;;;;1.38;100.00;101523.88;5036488;28;20033;-78
2021/12/06 05:59:10;;;;;;;192.32;45.20;;;;;;;1.49;100.00;101526.38;5034151;28;20013;-79
2021/12/06 06:01:35;;;;;;;183.45;46.03;;;;;;;1.62;100.00;101522.84;5035800;28;20035;-79
2021/12/06 06:04:01;;;;;;;194.57;44.40;;;;;;;1.73;100.00;101525.25;5035506;28;20018;-78
2021/12/06 06:06:32;;;;;;;196.80;46.22;;;;;;;1.81;100.00;101532.69;5034182;28;20039;-77
2021/12/06 06:08:59;;;;;;;182.77;43.15;;;;;;;1.85;100.00;101524.31;5030317;28;20037;-79
2021/12/06 06:11:25;;;;;;;157.65;43.30;;;;;;;1.92;100.00;101535.09;5031648;28;20036;-79
2021/12/06 06:13:50;;;;;;;160.65;42.50;;;;;;;1.97;100.00;101536.28;5036130;28;20038;-78
2021/12/06 06:16:19;;;;;;;186.05;44.35;;;;;;;2.02;100.00;101537.44;5036222;28;20148;-78
2021/12/06 06:18:46;;;;;;;163.75;43.08;;;;;;;2.05;100.00;101539.31;5036704;28;20085;-78
2021/12/06 06:21:12;;;;;;;199.07;42.55;;;;;;;2.07;100.00;101537.75;5038333;28;20081;-78
2021/12/06 06:23:37;;;;;;;156.10;42.47;;;;;;;2.10;100.00;101541.41;5039255;28;20053;-78
2021/12/06 06:26:03;;;;;;;219.23;46.40;;;;;;;2.12;100.00;101538.94;5037288;28;20041;-78
2021/12/06 06:28:29;;;;;;;169.50;38.85;;;;;;;2.15;100.00;101533.91;5035477;28;20047;-79
2021/12/06 06:30:55;;;;;;;173.60;42.08;;;;;;;2.14;100.00;101542.50;5037269;28;20816;-79
2021/12/06 06:33:21;;;;;;;167.82;40.78;;;;;;;2.14;100.00;101545.09;5036276;28;20489;-79
2021/12/06 06:35:47;;;;;;;197.75;42.92;;;;;;;2.13;100.00;101545.88;5036488;28;20131;-79
2021/12/06 06:38:13;;;;;;;244.93;42.05;;;;;;;2.15;100.00;101544.31;5036035;28;20036;-79
2021/12/06 06:40:41;;;;;;;359.38;46.10;;;;;;;2.14;100.00;101552.88;5019560;28;20029;-78
2021/12/06 06:43:08;;;;;;;299.63;42.13;;;;;;;2.14;100.00;101555.47;5034968;28;20044;-80
2021/12/06 06:45:34;;;;;;;239.45;41.10;;;;;;;2.14;100.00;101547.69;5036572;28;20044;-79
2021/12/06 06:48:00;;;;;;;226.00;41.83;;;;;;;2.12;100.00;101550.19;5038108;28;21410;-79
2021/12/06 06:50:26;;;;;;;181.27;42.25;;;;;;;2.12;100.00;101550.19;5035548;28;20053;-78
2021/12/06 06:52:52;;;;;;;161.85;39.42;;;;;;;2.16;100.00;101559.09;5036692;28;20048;-78
2021/12/06 06:55:18;;;;;;;199.00;38.80;;;;;;;2.19;100.00;101561.88;5036613;28;20444;-79
2021/12/06 06:57:46;;;;;;;195.63;43.50;;;;;;;2.19;100.00;101567.94;5035716;28;20139;-79
2021/12/06 07:00:17;;;;;;;312.45;42.85;;;;;;;2.19;100.00;101556.66;5038293;28;20029;-80
2021/12/06 07:02:44;;;;;;;224.82;41.72;;;;;;;2.18;100.00;101555.78;5032450;28;20029;-79
2021/12/06 07:05:10;;;;;;;213.85;45.33;;;;;;;2.19;100.00;101554.97;5037743;28;20018;-80
2021/12/06 07:07:36;;;;;;;256.05;46.42;;;;;;;2.21;100.00;101549.84;5037247;28;20024;-80
2021/12/06 07:10:04;;;;;;;220.02;44.55;;;;;;;2.23;100.00;101553.47;5035541;28;20036;-76
2021/12/06 07:12:30;;;;;;;229.88;48.63;;;;;;;2.25;100.00;101541.47;5031869;28;20060;-79
2021/12/06 07:14:55;;;;;;;189.57;45.17;;;;;;;2.26;100.00;101532.88;5036293;28;20080;-80
2021/12/06 07:17:21;;;;;;;333.50;53.42;;;;;;;2.29;100.00;101538.28;5037711;28;20100;-79
2021/12/06 07:19:47;;;;;;;242.82;46.33;;;;;;;2.28;100.00;101531.28;5033636;28;20033;-80
2021/12/06 07:22:12;;;;;;;194.68;43.05;;;;;;;2.29;100.00;101533.06;5036718;28;20049;-79
2021/12/06 07:24:39;;;;;;;231.57;44.15;;;;;;;2.28;100.00;101528.69;5036649;28;20032;-80
2021/12/06 07:27:05;;;;;;;185.57;44.30;;;;;;;2.32;100.00;101524.53;5034849;28;20038;-79
2021/12/06 07:29:33;;;;;;;178.15;41.03;;;;;;;2.31;100.00;101518.47;5030297;28;20458;-79
2021/12/06 07:32:01;;;;;;;181.38;44.33;;;;;;;2.35;100.00;101527.34;5033465;28;20445;-79
2021/12/06 07:34:26;;;;;;;219.85;46.55;;;;;;;2.38;100.00;101521.44;5033868;28;20037;-78
2021/12/06 07:36:54;;;;;;;188.35;41.83;;;;;;;2.38;100.00;101518.84;5035177;28;20389;-77
2021/12/06 07:39:20;;;;;;;192.05;43.17;;;;;;;2.39;100.00;101523.22;5032950;28;20501;-77
2021/12/06 07:41:45;;;;;;;175.25;44.08;;;;;;;2.41;100.00;101524.22;5036089;28;20066;-78
2021/12/06 07:44:11;;;;;;;169.55;43.35;;;;;;;2.40;100.00;101525.03;5035328;28;20033;-79
2021/12/06 07:46:38;;;;;;;182.15;45.65;;;;;;;2.43;100.00;101530.38;5036236;28;20022;-79
2021/12/06 07:49:04;;;;;;;194.73;47.33;;;;;;;2.41;100.00;101530.31;5034499;28;20029;-80
2021/12/06 07:51:29;;;;;;;182.82;45.28;;;;;;;2.44;100.00;101532.19;5034703;28;20028;-79
2021/12/06 07:53:56;;;;;;;185.98;45.78;;;;;;;2.46;100.00;101530.59;5032302;28;20040;-77
2021/12/06 07:56:22;;;;;;;193.18;45.40;;;;;;;2.45;100.00;101529.69;5033307;28;20035;-79
2021/12/06 07:58:49;;;;;;;177.93;43.05;;;;;;;2.43;100.00;101530.38;5034993;28;20021;-79
2021/12/06 08:01:15;;;;;;;186.45;46.65;;;;;;;2.43;100.00;101520.91;5032225;28;20036;-77
2021/12/06 08:03:42;;;;;;;199.10;46.17;;;;;;;2.46;100.00;101525.41;5040009;28;20458;-77
2021/12/06 08:06:09;;;;;;;181.32;45.70;;;;;;;2.46;100.00;101531.47;5033213;28;20393;-77
2021/12/06 08:08:38;;;;;;;176.65;43.70;;;;;;;2.47;100.00;101542.75;5033730;28;20094;-77
2021/12/06 08:11:11;;;;;;;178.77;45.08;;;;;;;2.42;100.00;101534.69;5033336;28;20100;-76
2021/12/06 08:13:39;;;;;;;180.95;46.58;;;;;;;2.45;100.00;101544.38;5031272;28;20017;-76
2021/12/06 08:16:10;;;;;;;196.57;46.85;;;;;;;2.47;100.00;101547.97;5033743;28;20481;-76
2021/12/06 08:18:35;;;;;;;167.50;42.85;;;;;;;2.47;100.00;101558.34;5033886;28;20100;-77
2021/12/06 08:21:02;;;;;;;171.55;42.90;;;;;;;2.47;100.00;101559.25;5034942;28;20558;-76
2021/12/06 08:23:28;;;;;;;173.80;43.85;;;;;;;2.47;100.00;101560.94;5034783;28;20057;-78
2021/12/06 08:25:54;;;;;;;177.50;42.10;;;;;;;2.47;100.00;101566.13;5033276;28;20079;-79
2021/12/06 08:28:20;;;;;;;171.63;42.78;;;;;;;2.45;100.00;101565.16;5033040;28;20045;-78
2021/12/06 08:30:47;;;;;;;181.30;44.22;;;;;;;2.46;100.00;101566.97;5033797;28;20060;-77
2021/12/06 08:33:13;;;;;;;165.60;43.13;;;;;;;2.47;100.00;101561.88;5032875;28;20064;-80
2021/12/06 08:35:43;;;;;;;171.93;42.45;;;;;;;2.45;100.00;101562.56;5033178;28;20067;-78
2021/12/06 08:38:10;;;;;;;164.88;42.25;;;;;;;2.46;100.00;101551.38;5033214;28;20429;-81
2021/12/06 08:40:37;;;;;;;161.13;42.08;;;;;;;2.46;100.00;101559.19;5008156;28;20030;-79
2021/12/06 08:43:02;;;;;;;180.60;44.40;;;;;;;2.45;100.00;101554.78;5026843;28;20048;-79
2021/12/06 08:45:28;;;;;;;186.23;43.33;;;;;;;2.44;100.00;101550.38;5038728;28;20374;-78
2021/12/06 08:47:55;;;;;;;172.57;44.65;;;;;;;2.46;100.00;101551.38;5031379;28;20032;-78
2021/12/06 08:50:24;;;;;;;164.57;45.42;;;;;;;2.49;100.00;101551.56;5030204;28;20061;-79
2021/12/06 08:52:51;;;;;;;170.35;43.63;;;;;;;2.51;100.00;101556.03;5031131;28;20034;-79
2021/12/06 08:55:18;;;;;;;175.93;44.55;;;;;;;2.50;100.00;101553.34;5031915;28;20068;-80
2021/12/06 08:57:44;;;;;;;174.98;44.60;;;;;;;2.53;100.00;101543.16;5032597;28;20079;-77
2021/12/06 09:00:17;;;;;;;197.82;47.38;;;;;;;2.53;100.00;101538.84;5033431;28;20029;-78
2021/12/06 09:02:44;;;;;;;195.80;48.00;;;;;;;2.58;100.00;101530.41;5031688;28;20092;-77
2021/12/06 09:05:10;;;;;;;195.13;46.35;;;;;;;2.62;100.00;101530.72;5031812;28;20037;-76
2021/12/06 09:07:36;;;;;;;191.27;49.47;;;;;;;2.66;100.00;101539.59;5026254;28;20030;-77
2021/12/06 09:10:03;;;;;;;180.85;46.60;;;;;;;2.67;100.00;101536.16;5025448;28;20480;-78
2021/12/06 09:12:31;;;;;;;189.68;46.38;;;;;;;2.73;100.00;101540.84;5029564;28;20437;-76
2021/12/06 09:15:00;;;;;;;191.48;49.00;;;;;;;2.68;100.00;101527.56;5026285;28;20032;-75
2021/12/06 09:17:28;;;;;;;180.48;47.92;;;;;;;2.76;100.00;101522.84;5029668;28;20022;-78
2021/12/06 09:19:54;;;;;;;202.15;50.45;;;;;;;2.80;100.00;101522.22;5030318;28;20424;-77
2021/12/06 09:22:21;;;;;;;179.18;46.40;;;;;;;2.84;100.00;101519.00;5028364;28;20056;-78
2021/12/06 09:24:49;;;;;;;180.07;47.13;;;;;;;2.85;100.00;101520.78;5035038;28;20562;-78
2021/12/06 09:27:14;;;;;;;194.88;47.97;;;;;;;2.86;100.00;101522.56;5031913;28;20513;-77
2021/12/06 09:29:40;;;;;;;187.90;48.47;;;;;;;2.90;100.00;101523.66;5030851;28;20037;-77
2021/12/06 09:32:09;;;;;;;175.05;47.00;;;;;;;2.95;100.00;101538.69;5026900;28;20187;-77
2021/12/06 09:34:39;;;;;;;168.20;46.08;;;;;;;2.95;100.00;101546.50;5036476;28;20025;-78
2021/12/06 09:37:05;;;;;;;173.82;46.78;;;;;;;2.96;100.00;101542.22;5031711;28;20366;-77
2021/12/06 09:39:34;;;;;;;152.07;45.13;;;;;;;2.97;100.00;101546.59;5030362;28;20029;-77
2021/12/06 09:42:00;;;;;;;147.10;44.95;;;;;;;2.95;100.00;101543.91;5030295;28;20120;-76
2021/12/06 09:44:26;;;;;;;136.15;43.58;;;;;;;2.98;100.00;101548.38;5027844;28;20120;-76
2021/12/06 09:46:52;;;;;;;151.40;45.55;;;;;;;2.99;100.00;101535.47;5030284;28;20021;-77
2021/12/06 09:49:20;;;;;;;155.95;46.17;;;;;;;2.97;100.00;101531.91;5034089;28;20461;-76
2021/12/06 09:51:51;;;;;;;128.98;43.28;;;;;;;3.03;100.00;101542.66;5031841;28;20405;-77
2021/12/06 09:54:26;;;;;;;111.78;38.08;;;;;;;3.07;100.00;101542.84;5038575;28;20041;-78
2021/12/06 09:56:53;;;;;;;107.40;37.67;;;;;;;3.13;100.00;101551.88;5032851;28;20025;-78
2021/12/06 09:59:21;;;;;;;108.22;37.38;;;;;;;3.12;100.00;101539.69;5033080;28;20033;-77
2021/12/06 10:01:57;;;;;;;97.07;35.47;;;;;;;3.15;100.00;101539.88;5034253;28;20050;-77
2021/12/06 10:04:27;;;;;;;100.20;35.53;;;;;;;3.18;100.00;101531.34;5025315;28;20040;-79
2021/12/06 10:06:54;;;;;;;91.72;34.30;;;;;;;3.23;100.00;101532.53;5030711;28;20473;-76
2021/12/06 10:09:20;;;;;;;93.63;36.22;;;;;;;3.27;100.00;101511.09;5036051;28;20037;-76
2021/12/06 10:11:46;;;;;;;94.95;34.63;;;;;;;3.30;100.00;101521.66;5036753;28;20525;-76
2021/12/06 10:14:12;;;;;;;96.53;35.75;;;;;;;3.38;100.00;101519.50;5038337;28;20489;-76
2021/12/06 10:16:39;;;;;;;95.97;35.40;;;;;;;3.41;100.00;101508.38;5037764;28;20393;-75
2021/12/06 10:19:05;;;;;;;110.47;38.70;;;;;;;3.36;100.00;101501.19;5035981;28;20025;-76
2021/12/06 10:21:34;;;;;;;96.05;33.42;;;;;;;3.36;100.00;101503.81;5037276;28;20037;-76
2021/12/06 10:24:00;;;;;;;94.70;35.58;;;;;;;3.36;100.00;101490.78;5034895;28;20044;-76
2021/12/06 10:26:30;;;;;;;95.78;34.22;;;;;;;3.42;100.00;101471.09;5031888;28;20180;-77
2021/12/06 10:29:01;;;;;;;92.60;33.88;;;;;;;3.44;100.00;101461.69;5038155;28;20096;-77
2021/12/06 10:31:30;;;;;;;88.70;32.40;;;;;;;3.46;100.00;101460.06;5035077;28;20670;-77
2021/12/06 10:33:55;;;;;;;87.65;29.45;;;;;;;3.54;100.00;101448.38;5037806;28;20037;-77
2021/12/06 10:36:25;;;;;;;86.28;28.77;;;;;;;3.52;100.00;101447.41;5034126;28;20025;-76
2021/12/06 10:38:53;;;;;;;72.68;27.65;;;;;;;3.49;100.00;101440.31;5029301;28;20026;-77
2021/12/06 10:41:22;;;;;;;68.20;28.10;;;;;;;3.59;100.00;101436.50;5025991;28;20045;-77
2021/12/06 10:43:59;;;;;;;76.75;30.92;;;;;;;3.60;100.00;101425.28;5024533;28;20465;-75
2021/12/06 10:46:26;;;;;;;82.28;31.15;;;;;;;3.63;100.00;101425.44;5031680;28;20042;-78
2021/12/06 10:48:58;;;;;;;82.47;30.80;;;;;;;3.62;100.00;101425.38;5029343;28;20025;-77
2021/12/06 10:51:25;;;;;;;68.50;27.40;;;;;;;3.68;100.00;101426.59;5035401;28;20029;-78
2021/12/06 10:54:00;;;;;;;67.05;26.77;;;;;;;3.61;100.00;101414.09;5034707;28;20075;-77
2021/12/06 10:56:39;;;;;;;70.47;26.98;;;;;;;3.50;100.00;101404.78;5036664;28;20491;-79
2021/12/06 10:59:15;;;;;;;71.53;26.75;;;;;;;3.53;100.00;101403.25;5033725;28;20025;-78
2021/12/06 11:01:42;;;;;;;69.18;24.50;;;;;;;3.40;100.00;101407.72;5035703;28;20037;-77
2021/12/06 11:04:12;;;;;;;62.15;22.17;;;;;;;3.35;100.00;101400.56;5032110;28;20551;-77
2021/12/06 11:06:44;;;;;;;60.55;22.48;;;;;;;3.37;100.00;101411.03;5035374;28;20040;-77
2021/12/06 11:09:16;;;;;;;60.35;23.15;;;;;;;3.33;100.00;101402.16;5036192;28;20036;-77
2021/12/06 11:11:49;;;;;;;64.97;26.27;;;;;;;3.30;100.00;101391.59;5032824;28;20492;-76
2021/12/06 11:14:20;;;;;;;70.05;26.08;;;;;;;3.29;100.00;101388.91;5033337;28;20034;-78
2021/12/06 11:16:48;;;;;;;63.45;24.33;;;;;;;3.31;100.00;101387.28;5034708;28;20025;-78
2021/12/06 11:19:19;;;;;;;62.63;24.98;;;;;;;3.30;100.00;101383.78;5034917;28;20053;-76